Terminal Aerodrome Forecast
Issued by NWS

Home | Current Version | Previous Version | Text Only | Print | Product List | Glossary On
Versions: 1 2 3 4 5 6 7 8 9 10 11 12 13 14 15 16 17
000
FTUS46 KMTR 271120
TAFOAK
TAF
KOAK 271120Z 2712/2818 26010KT P6SM OVC008
     FM271800 29008KT P6SM SCT020
     FM272100 29015KT P6SM FEW020
     FM280500 28009KT P6SM OVC007=

USA.gov is the U.S. government's official web portal to all federal, state and local government web resources and services.